createdAt,value
2018-05-31T00:00:13.866Z,22.20
2018-05-31T00:02:44.286Z,22.20
2018-05-31T00:05:16.196Z,22.10
2018-05-31T00:07:46.996Z,22.20
2018-05-31T00:10:16.755Z,22.20
2018-05-31T00:12:46.766Z,22.20
2018-05-31T00:15:16.015Z,22.10
2018-05-31T00:17:48.596Z,21.90
2018-05-31T00:20:18.867Z,21.70
2018-05-31T00:22:49.656Z,21.70
2018-05-31T00:25:20.697Z,21.70
2018-05-31T00:27:52.266Z,21.90
2018-05-31T00:30:21.236Z,21.90
2018-05-31T00:32:51.775Z,21.70
2018-05-31T00:35:23.696Z,21.70
2018-05-31T00:37:53.625Z,21.70
2018-05-31T00:40:23.105Z,21.80
2018-05-31T00:42:53.626Z,21.80
2018-05-31T00:45:23.136Z,21.60
2018-05-31T00:47:52.895Z,21.50
2018-05-31T00:50:23.175Z,21.50
2018-05-31T00:52:56.442Z,21.50
2018-05-31T00:55:38.056Z,21.50
2018-05-31T00:58:07.555Z,21.50
2018-05-31T01:00:37.578Z,21.50
2018-05-31T01:03:09.126Z,21.50
2018-05-31T01:05:39.657Z,21.50
2018-05-31T01:08:09.176Z,21.50
2018-05-31T01:10:38.666Z,21.60
2018-05-31T01:13:08.430Z,21.60
2018-05-31T01:15:38.697Z,21.70
2018-05-31T01:18:08.205Z,21.70
2018-05-31T01:20:37.956Z,21.70
2018-05-31T01:23:08.996Z,21.50
2018-05-31T01:25:38.756Z,21.50
2018-05-31T01:28:08.566Z,21.30
2018-05-31T01:30:38.556Z,21.00
2018-05-31T01:33:10.325Z,20.90
2018-05-31T01:35:40.116Z,20.80
2018-05-31T01:38:21.656Z,20.80
2018-05-31T01:40:52.066Z,21.00
2018-05-31T01:43:21.947Z,21.10
2018-05-31T01:45:51.457Z,21.20
2018-05-31T01:48:21.727Z,21.20
2018-05-31T01:50:51.525Z,21.40
2018-05-31T01:53:22.785Z,21.40
2018-05-31T01:55:53.316Z,21.40
2018-05-31T01:58:23.615Z,21.40
2018-05-31T02:00:56.416Z,21.50
2018-05-31T02:03:29.256Z,21.60
2018-05-31T02:05:59.266Z,21.60
2018-05-31T02:08:29.547Z,21.50
2018-05-31T02:11:01.867Z,21.50
2018-05-31T02:13:31.368Z,21.60
2018-05-31T02:16:01.127Z,21.60
2018-05-31T02:18:31.405Z,21.70
2018-05-31T02:21:01.677Z,21.80
2018-05-31T02:23:31.426Z,21.70
2018-05-31T02:26:01.458Z,21.70
2018-05-31T02:28:30.956Z,21.70
2018-05-31T02:31:00.730Z,21.70
2018-05-31T02:33:30.995Z,21.70
2018-05-31T02:36:03.456Z,21.70
2018-05-31T02:38:35.125Z,21.70
2018-05-31T02:41:05.146Z,21.80
2018-05-31T02:43:35.160Z,21.70
2018-05-31T02:46:05.426Z,21.80
2018-05-31T02:48:35.347Z,21.80
2018-05-31T02:51:05.210Z,21.80
2018-05-31T02:53:37.535Z,21.80
2018-05-31T02:56:08.696Z,21.80
2018-05-31T02:58:40.130Z,21.80
2018-05-31T03:01:10.917Z,21.80
2018-05-31T03:03:41.139Z,21.80
2018-05-31T03:06:11.316Z,21.70
2018-05-31T03:08:41.216Z,21.70
2018-05-31T03:11:10.726Z,21.50
2018-05-31T03:13:40.776Z,21.50
2018-05-31T03:16:10.002Z,21.40
2018-05-31T03:18:40.236Z,21.40
2018-05-31T03:21:09.766Z,21.40
2018-05-31T03:23:39.536Z,21.30
2018-05-31T03:26:09.297Z,21.30
2018-05-31T03:28:40.717Z,21.30
2018-05-31T03:31:10.610Z,21.30
2018-05-31T03:33:40.996Z,21.20
2018-05-31T03:36:10.636Z,21.10
2018-05-31T03:38:44.427Z,20.90
2018-05-31T03:41:14.297Z,20.90
2018-05-31T03:43:44.046Z,20.90
2018-05-31T03:46:13.517Z,21.00
2018-05-31T03:48:42.776Z,21.00
2018-05-31T03:51:12.766Z,20.90
2018-05-31T03:53:43.145Z,20.90
2018-05-31T03:56:15.898Z,20.80
2018-05-31T03:58:46.676Z,20.80
2018-05-31T04:01:17.218Z,20.80
2018-05-31T04:03:47.476Z,20.70
2018-05-31T04:06:21.206Z,20.70
2018-05-31T04:08:51.386Z,20.70
2018-05-31T04:11:21.626Z,20.70
2018-05-31T04:13:51.897Z,20.70
2018-05-31T04:16:21.926Z,20.70
2018-05-31T04:18:51.417Z,20.80
2018-05-31T04:21:25.095Z,20.70
2018-05-31T04:23:54.318Z,20.70
2018-05-31T04:26:23.816Z,20.70
2018-05-31T04:28:57.825Z,20.60
2018-05-31T04:31:26.896Z,20.60
2018-05-31T04:33:57.407Z,20.50
2018-05-31T04:36:27.176Z,20.50
2018-05-31T04:38:59.426Z,20.50
2018-05-31T04:41:30.797Z,20.50
2018-05-31T04:44:00.546Z,20.50
2018-05-31T04:46:30.837Z,20.60
2018-05-31T04:49:01.370Z,20.60
2018-05-31T04:51:31.136Z,20.50
2018-05-31T04:54:00.406Z,20.40
2018-05-31T04:56:30.137Z,20.40
2018-05-31T04:59:00.146Z,20.40
2018-05-31T05:01:34.375Z,20.40
2018-05-31T05:04:04.276Z,20.40
2018-05-31T05:06:34.816Z,20.50
2018-05-31T05:09:06.036Z,20.50
2018-05-31T05:11:35.616Z,20.50
2018-05-31T05:14:05.627Z,20.60
2018-05-31T05:16:36.416Z,20.70
2018-05-31T05:19:07.196Z,20.60
2018-05-31T05:21:37.216Z,20.70
2018-05-31T05:24:07.266Z,20.70
2018-05-31T05:26:36.736Z,20.80
2018-05-31T05:29:06.511Z,20.90
2018-05-31T05:31:36.006Z,21.00
2018-05-31T05:34:06.166Z,21.20
2018-05-31T05:36:35.528Z,21.10
2018-05-31T05:39:06.316Z,21.30
2018-05-31T05:41:36.076Z,21.30
2018-05-31T05:44:06.049Z,21.40
2018-05-31T05:46:35.856Z,21.50
2018-05-31T05:49:05.617Z,21.70
2018-05-31T05:51:35.406Z,21.70
2018-05-31T05:54:05.648Z,21.70
2018-05-31T05:56:35.405Z,21.80
2018-05-31T05:59:10.796Z,22.00
2018-05-31T06:01:41.896Z,22.10
2018-05-31T06:04:11.887Z,22.10
2018-05-31T06:06:41.666Z,22.20
2018-05-31T06:09:11.387Z,22.20
2018-05-31T06:11:41.916Z,22.30
2018-05-31T06:14:11.936Z,22.20
2018-05-31T06:16:41.949Z,22.40
2018-05-31T06:19:12.989Z,22.40
2018-05-31T06:21:42.496Z,22.50
2018-05-31T06:24:14.426Z,22.60
2018-05-31T06:26:44.606Z,22.80
2018-05-31T06:29:17.157Z,22.90
2018-05-31T06:31:47.040Z,23.00
2018-05-31T06:34:18.475Z,23.10
2018-05-31T06:36:50.217Z,23.20
2018-05-31T06:39:19.516Z,23.30
2018-05-31T06:41:50.426Z,23.20
2018-05-31T06:44:21.858Z,23.40
2018-05-31T06:46:53.899Z,23.50
2018-05-31T06:49:23.166Z,23.40
2018-05-31T06:51:54.336Z,23.50
2018-05-31T06:54:24.746Z,23.60
2018-05-31T06:56:54.506Z,23.70
2018-05-31T06:59:26.576Z,23.60
2018-05-31T07:01:56.326Z,23.50
2018-05-31T07:04:28.066Z,23.50
2018-05-31T07:07:02.376Z,23.50
2018-05-31T07:09:32.028Z,23.50
2018-05-31T07:12:03.576Z,23.40
2018-05-31T07:14:33.576Z,23.40
2018-05-31T07:17:03.866Z,23.50
2018-05-31T07:19:35.486Z,23.50
2018-05-31T07:22:05.687Z,23.60
2018-05-31T07:24:37.006Z,23.70
2018-05-31T07:27:07.009Z,23.50
2018-05-31T07:29:37.538Z,23.40
2018-05-31T07:32:08.067Z,23.60
2018-05-31T07:34:40.401Z,23.60
2018-05-31T07:37:10.656Z,23.70
2018-05-31T07:39:40.697Z,23.80
2018-05-31T07:42:10.686Z,23.90
2018-05-31T07:44:42.206Z,23.80
2018-05-31T07:47:11.996Z,23.80
2018-05-31T07:49:42.836Z,23.90
2018-05-31T07:52:13.525Z,24.00
2018-05-31T07:54:44.647Z,23.90
2018-05-31T07:57:13.865Z,23.90
2018-05-31T07:59:44.385Z,23.80
2018-05-31T08:02:13.896Z,23.60
2018-05-31T08:04:43.925Z,23.50
2018-05-31T08:07:18.265Z,23.50
2018-05-31T08:09:49.435Z,23.40
2018-05-31T08:12:18.582Z,23.40
2018-05-31T08:14:48.931Z,23.50
2018-05-31T08:17:20.146Z,23.50
2018-05-31T08:19:51.477Z,23.60
2018-05-31T08:22:21.465Z,23.50
2018-05-31T08:24:53.786Z,23.60
2018-05-31T08:27:23.538Z,23.60
2018-05-31T08:29:53.557Z,23.60
2018-05-31T08:32:24.080Z,23.40
2018-05-31T08:34:53.336Z,23.40
2018-05-31T08:37:23.106Z,23.30
2018-05-31T08:39:53.706Z,23.50
2018-05-31T08:42:23.896Z,23.50
2018-05-31T08:44:52.658Z,23.60
2018-05-31T08:47:22.689Z,23.60
2018-05-31T08:49:52.207Z,23.50
2018-05-31T08:52:22.466Z,23.50
2018-05-31T08:54:51.686Z,23.60
2018-05-31T08:57:21.467Z,23.80
2018-05-31T08:59:51.216Z,23.70
2018-05-31T09:02:26.257Z,23.70
2018-05-31T09:04:55.596Z,23.70
2018-05-31T09:07:27.606Z,23.80
2018-05-31T09:09:57.166Z,24.00
2018-05-31T09:12:28.456Z,24.00
2018-05-31T09:14:57.702Z,24.00
2018-05-31T09:17:28.236Z,24.10
2018-05-31T09:19:58.286Z,24.20
2018-05-31T09:22:39.392Z,24.00
2018-05-31T09:25:12.116Z,24.10
2018-05-31T09:27:43.128Z,24.10
2018-05-31T09:30:16.486Z,24.00
2018-05-31T09:32:54.459Z,24.00
2018-05-31T09:35:24.216Z,24.10
2018-05-31T09:37:54.218Z,24.20
2018-05-31T09:40:24.267Z,24.40
2018-05-31T09:43:02.382Z,24.50
2018-05-31T09:45:32.210Z,24.60
2018-05-31T09:48:05.655Z,24.60
2018-05-31T09:50:40.960Z,24.70
2018-05-31T09:53:16.016Z,24.80
2018-05-31T09:55:57.812Z,25.00
2018-05-31T09:58:30.206Z,25.00
2018-05-31T10:01:03.998Z,25.20
2018-05-31T10:03:48.636Z,25.30
2018-05-31T10:06:29.726Z,25.40
2018-05-31T10:09:03.788Z,25.30
2018-05-31T10:11:34.165Z,25.50
2018-05-31T10:14:03.715Z,25.70
2018-05-31T10:16:34.380Z,25.80
2018-05-31T10:19:04.146Z,25.70
2018-05-31T10:21:34.926Z,25.80
2018-05-31T10:24:04.978Z,25.80
2018-05-31T10:26:34.438Z,25.80
2018-05-31T10:29:03.168Z,25.90
2018-05-31T10:31:32.932Z,26.10
2018-05-31T10:34:02.176Z,26.20
2018-05-31T10:36:35.116Z,26.20
2018-05-31T10:39:09.664Z,26.30
2018-05-31T10:41:39.913Z,26.10
2018-05-31T10:44:08.955Z,26.00
2018-05-31T10:46:38.457Z,25.80
2018-05-31T10:49:07.446Z,25.70
2018-05-31T10:51:37.796Z,25.70
2018-05-31T10:54:07.637Z,25.70
2018-05-31T10:56:37.787Z,25.80
2018-05-31T10:59:06.701Z,25.80
2018-05-31T11:01:38.046Z,25.80
2018-05-31T11:04:08.027Z,25.70
2018-05-31T11:06:39.326Z,25.70
2018-05-31T11:09:10.117Z,25.70
2018-05-31T11:11:39.906Z,25.60
2018-05-31T11:14:09.886Z,25.50
2018-05-31T11:16:38.891Z,25.40
2018-05-31T11:19:09.169Z,26.00
2018-05-31T11:21:39.449Z,26.00
2018-05-31T11:24:09.696Z,26.20
2018-05-31T11:26:39.757Z,26.70
2018-05-31T11:29:09.540Z,26.90
2018-05-31T11:31:39.237Z,26.70
2018-05-31T11:34:08.688Z,26.60
2018-05-31T11:36:38.797Z,26.70
2018-05-31T11:39:08.527Z,26.70
2018-05-31T11:41:38.334Z,26.60
2018-05-31T11:44:11.965Z,26.60
2018-05-31T11:46:41.125Z,26.60
2018-05-31T11:49:10.646Z,26.60
2018-05-31T11:51:40.407Z,26.50
2018-05-31T11:54:10.616Z,26.50
2018-05-31T11:56:40.947Z,26.60
2018-05-31T11:59:10.466Z,26.70
2018-05-31T12:01:40.739Z,26.80
2018-05-31T12:04:10.528Z,26.80
2018-05-31T12:06:41.077Z,26.80
2018-05-31T12:09:11.026Z,26.90
2018-05-31T12:11:41.567Z,26.90
2018-05-31T12:14:11.317Z,26.90
2018-05-31T12:16:41.297Z,26.80
2018-05-31T12:19:11.355Z,26.80
2018-05-31T12:21:41.387Z,26.80
2018-05-31T12:24:12.966Z,26.70
2018-05-31T12:26:44.478Z,26.80
2018-05-31T12:29:15.226Z,26.90
2018-05-31T12:31:45.857Z,27.00
2018-05-31T12:34:16.326Z,27.10
2018-05-31T12:36:46.856Z,27.00
2018-05-31T12:39:16.616Z,27.00
2018-05-31T12:41:47.159Z,27.00
2018-05-31T12:44:18.247Z,27.10
2018-05-31T12:46:48.966Z,27.20
2018-05-31T12:49:19.246Z,27.10
2018-05-31T12:51:49.868Z,27.10
2018-05-31T12:54:19.786Z,27.10
2018-05-31T12:56:50.641Z,27.10
2018-05-31T12:59:19.905Z,27.20
2018-05-31T13:01:51.416Z,27.10
2018-05-31T13:04:21.665Z,27.10
2018-05-31T13:06:51.926Z,27.30
2018-05-31T13:09:24.514Z,27.20
2018-05-31T13:11:55.557Z,27.40
2018-05-31T13:14:25.055Z,27.30
2018-05-31T13:16:55.955Z,27.20
2018-05-31T13:19:27.126Z,27.20
2018-05-31T13:21:57.146Z,27.20
2018-05-31T13:24:26.916Z,27.30
2018-05-31T13:26:57.726Z,27.30
2018-05-31T13:29:27.218Z,27.30
2018-05-31T13:31:57.256Z,27.20
2018-05-31T13:34:26.994Z,27.20
2018-05-31T13:36:56.711Z,27.20
2018-05-31T13:39:25.967Z,27.10
2018-05-31T13:41:56.529Z,27.00
2018-05-31T13:44:26.796Z,26.90
2018-05-31T13:46:57.096Z,26.90
2018-05-31T13:49:26.726Z,26.90
2018-05-31T13:51:56.855Z,27.00
2018-05-31T13:54:26.610Z,27.00
2018-05-31T13:56:57.265Z,26.90
2018-05-31T13:59:27.227Z,26.90
2018-05-31T14:01:56.966Z,26.90
2018-05-31T14:04:26.196Z,26.90
2018-05-31T14:06:56.777Z,26.90
2018-05-31T14:09:25.942Z,26.90
2018-05-31T14:11:55.697Z,26.80
2018-05-31T14:14:25.107Z,26.80
2018-05-31T14:16:55.546Z,26.80
2018-05-31T14:19:27.747Z,26.80
2018-05-31T14:21:58.601Z,26.90
2018-05-31T14:24:29.726Z,26.90
2018-05-31T14:27:00.157Z,26.90
2018-05-31T14:29:29.673Z,26.90
2018-05-31T14:32:00.462Z,27.00
2018-05-31T14:34:30.206Z,27.00
2018-05-31T14:37:00.095Z,27.00
2018-05-31T14:39:29.756Z,27.00
2018-05-31T14:42:01.226Z,27.00
2018-05-31T14:44:32.077Z,27.00
2018-05-31T14:47:03.606Z,27.00
2018-05-31T14:49:36.075Z,26.90
2018-05-31T14:52:05.966Z,26.90
2018-05-31T14:54:40.707Z,26.90
2018-05-31T14:57:11.378Z,26.90
2018-05-31T14:59:41.139Z,26.80
2018-05-31T15:02:11.149Z,26.80
2018-05-31T15:04:41.735Z,26.80
2018-05-31T15:07:11.449Z,26.80
2018-05-31T15:09:42.227Z,26.90
2018-05-31T15:12:12.537Z,26.90
2018-05-31T15:14:42.006Z,26.90
2018-05-31T15:17:15.147Z,27.20
2018-05-31T15:19:44.866Z,27.10
2018-05-31T15:22:19.879Z,27.10
2018-05-31T15:24:49.246Z,27.20
2018-05-31T15:27:18.786Z,27.20
2018-05-31T15:29:48.766Z,27.20
2018-05-31T15:32:20.577Z,27.10
2018-05-31T15:34:50.847Z,27.10
2018-05-31T15:37:20.636Z,27.20
2018-05-31T15:39:51.906Z,27.20
2018-05-31T15:42:23.716Z,27.30
2018-05-31T15:44:53.737Z,27.30
2018-05-31T15:47:25.035Z,27.40
2018-05-31T15:49:54.537Z,27.30
2018-05-31T15:52:24.807Z,27.40
2018-05-31T15:54:55.845Z,27.20
2018-05-31T15:57:27.916Z,27.30
2018-05-31T15:59:58.575Z,27.20
2018-05-31T16:02:29.737Z,27.40
2018-05-31T16:05:02.067Z,27.30
2018-05-31T16:07:32.587Z,27.30
2018-05-31T16:10:02.347Z,27.30
2018-05-31T16:12:32.266Z,27.40
2018-05-31T16:15:02.089Z,27.30
2018-05-31T16:17:32.655Z,27.30
2018-05-31T16:20:05.496Z,27.30
2018-05-31T16:22:36.076Z,27.20
2018-05-31T16:25:06.227Z,27.20
2018-05-31T16:27:37.096Z,27.20
2018-05-31T16:30:07.999Z,27.20
2018-05-31T16:32:38.654Z,27.10
2018-05-31T16:35:09.179Z,27.10
2018-05-31T16:37:40.217Z,27.00
2018-05-31T16:40:09.436Z,27.00
2018-05-31T16:42:41.798Z,26.90
2018-05-31T16:45:12.367Z,26.80
2018-05-31T16:47:44.386Z,26.80
2018-05-31T16:50:14.681Z,26.80
2018-05-31T16:52:46.357Z,26.80
2018-05-31T16:55:16.216Z,26.80
2018-05-31T16:57:48.036Z,26.70
2018-05-31T17:00:18.816Z,26.80
2018-05-31T17:02:49.926Z,26.60
2018-05-31T17:05:19.120Z,26.70
2018-05-31T17:07:49.805Z,26.70
2018-05-31T17:10:19.406Z,26.60
2018-05-31T17:12:50.966Z,26.60
2018-05-31T17:15:21.276Z,26.50
2018-05-31T17:17:52.016Z,26.50
2018-05-31T17:20:21.776Z,26.40
2018-05-31T17:22:52.907Z,26.30
2018-05-31T17:25:22.349Z,26.20
2018-05-31T17:27:52.087Z,26.10
2018-05-31T17:30:22.356Z,26.10
2018-05-31T17:32:51.846Z,26.10
2018-05-31T17:35:21.576Z,26.10
2018-05-31T17:37:55.416Z,26.20
2018-05-31T17:40:25.497Z,26.20
2018-05-31T17:42:55.039Z,26.20
2018-05-31T17:45:24.516Z,26.10
2018-05-31T17:47:56.476Z,26.10
2018-05-31T17:50:25.825Z,26.10
2018-05-31T17:53:00.074Z,26.00
2018-05-31T17:55:34.141Z,26.10
2018-05-31T17:58:05.381Z,26.10
2018-05-31T18:00:35.345Z,26.10
2018-05-31T18:03:06.276Z,26.00
2018-05-31T18:05:37.185Z,26.00
2018-05-31T18:08:07.976Z,26.00
2018-05-31T18:10:38.196Z,26.00
2018-05-31T18:13:08.016Z,26.10
2018-05-31T18:15:38.006Z,26.10
2018-05-31T18:18:08.198Z,26.10
2018-05-31T18:20:38.580Z,26.10
2018-05-31T18:23:08.845Z,26.00
2018-05-31T18:25:38.868Z,26.00
2018-05-31T18:28:08.625Z,26.00
2018-05-31T18:30:40.447Z,26.00
2018-05-31T18:33:10.965Z,25.90
2018-05-31T18:35:41.276Z,25.80
2018-05-31T18:38:11.007Z,25.70
2018-05-31T18:40:40.766Z,25.70
2018-05-31T18:43:10.509Z,25.60
2018-05-31T18:45:40.797Z,25.60
2018-05-31T18:48:10.586Z,25.60
2018-05-31T18:50:43.179Z,25.60
2018-05-31T18:53:14.797Z,25.60
2018-05-31T18:55:45.976Z,25.50
2018-05-31T18:58:15.125Z,25.40
2018-05-31T19:00:46.026Z,25.30
2018-05-31T19:03:16.276Z,25.20
2018-05-31T19:05:46.046Z,25.20
2018-05-31T19:08:15.805Z,25.10
2018-05-31T19:10:45.826Z,25.10
2018-05-31T19:13:20.276Z,25.00
2018-05-31T19:15:50.347Z,24.90
2018-05-31T19:18:25.920Z,24.80
2018-05-31T19:20:55.626Z,24.70
2018-05-31T19:23:26.666Z,24.70
2018-05-31T19:25:56.688Z,24.60
2018-05-31T19:28:26.585Z,24.50
2018-05-31T19:31:00.766Z,24.50
2018-05-31T19:33:31.216Z,24.40
2018-05-31T19:36:09.256Z,24.50
2018-05-31T19:38:38.796Z,24.40
2018-05-31T19:41:09.075Z,24.40
2018-05-31T19:43:44.766Z,24.30
2018-05-31T19:46:13.966Z,24.40
2018-05-31T19:48:44.626Z,24.30
2018-05-31T19:51:14.627Z,24.30
2018-05-31T19:53:45.156Z,24.20
2018-05-31T19:56:15.073Z,24.20
2018-05-31T19:58:50.456Z,24.30
2018-05-31T20:01:24.847Z,24.30
2018-05-31T20:03:54.327Z,24.20
2018-05-31T20:06:23.835Z,24.20
2018-05-31T20:08:53.158Z,24.20
2018-05-31T20:11:23.160Z,24.30
2018-05-31T20:13:52.876Z,24.30
2018-05-31T20:16:22.642Z,24.40
2018-05-31T20:18:53.163Z,24.50
2018-05-31T20:21:22.665Z,24.50
2018-05-31T20:23:53.736Z,24.50
2018-05-31T20:26:23.732Z,24.40
2018-05-31T20:28:54.986Z,24.30
2018-05-31T20:31:24.776Z,24.20
2018-05-31T20:33:55.558Z,24.10
2018-05-31T20:36:25.326Z,24.00
2018-05-31T20:38:56.876Z,23.80
2018-05-31T20:41:26.756Z,23.80
2018-05-31T20:43:57.667Z,23.70
2018-05-31T20:46:27.436Z,23.70
2018-05-31T20:48:58.507Z,23.60
2018-05-31T20:51:29.527Z,23.50
2018-05-31T20:54:03.138Z,23.30
2018-05-31T20:56:32.636Z,23.20
2018-05-31T20:59:04.947Z,23.10
2018-05-31T21:01:35.986Z,22.90
2018-05-31T21:04:11.066Z,22.90
2018-05-31T21:06:43.665Z,22.90
2018-05-31T21:09:15.765Z,22.90
2018-05-31T21:11:45.307Z,22.80
2018-05-31T21:14:16.056Z,22.70
